FAKM

Details ICAO FAKM (KIM)
Name Kimberley
Region South Africa
Timezone Africa/Johannesburg (UTC+2.0)
Plans Departing 20
Arriving 28
Stats Elevation 3,950 ft / 1,204 m (AMSL)
Location -28.804751° 24.763997°
Runways 2
Magnetic Variation 21.456° W
Sunrise 2017-12-13 03:17:52 UTC / 2017-12-13 05:17:52 Local
Sunset 2017-12-13 17:15:12 UTC / 2017-12-13 19:15:12 Local
Advertisement - Login to hide

Runways

ID Width Length Bearing (true) Bearing (mag) Surface Threshold Offset Overrun Length
02 150 ft / 46 m 9,851 ft / 3,003 m 0.00° 21.46° Asphalt 0 ft / 0 m 0 ft / 0 m
10 148 ft / 45 m 8,010 ft / 2,441 m 80.28° 101.74° Asphalt 0 ft / 0 m 0 ft / 0 m
20 150 ft / 46 m 9,851 ft / 3,003 m 180.00° 201.46° Asphalt 0 ft / 0 m 0 ft / 0 m
28 148 ft / 45 m 8,010 ft / 2,441 m 260.26° 281.72° Asphalt 0 ft / 0 m 0 ft / 0 m

Map

Weather


0- 5 10 15 20 25 30 35+ Temperature / ° C

Clouds and Precipitation
Forecast for 2017-12-13 18:00 UTC. Updated 2 hours ago

Ground ~20,000 ft ~40,000 ft Winds

METAR

FAKM 131700Z 25013KT CAVOK 32/M02 Q1011

TAF

Not found

Frequencies

Tower 118.60 MHz TWR
Approach 119.40 MHz BLOEMFONTEIN APP
Warning: Do not use this data for real-world aviation or navigation. No guarantee of current accuracy is given.